Time;durP1;ratioP1;P1;durP2;ratioP2;P2;SDS_P1;SDS_P2;PMS_P1;PMS_P2;Temp;Humidity;BMP_temperature;BMP_pressure;BME280_temperature;BME280_humidity;BME280_pressure;Samples;Min_cycle;Max_cycle;Signal;HPM_P1;HPM_P2
2023/05/25 00:02:15;;;;;;;25.70;21.70;;;;;;;12.00;94.17;97114.58;109121;1271;22719;-80
2023/05/25 00:04:47;;;;;;;27.00;22.60;;;;;;;12.02;94.39;97113.08;109106;1274;25191;-80
2023/05/25 00:07:18;;;;;;;28.40;24.00;;;;;;;12.03;94.22;97113.65;109009;1260;23285;-80
2023/05/25 00:09:49;;;;;;;27.00;22.60;;;;;;;12.02;94.23;97118.34;109119;1270;22514;-79
2023/05/25 00:12:20;;;;;;;28.40;22.70;;;;;;;12.01;94.22;97115.53;109104;1273;22570;-80
2023/05/25 00:14:51;;;;;;;26.20;21.40;;;;;;;11.99;94.18;97116.66;109105;1267;23918;-80
2023/05/25 00:17:23;;;;;;;24.30;21.20;;;;;;;12.02;94.40;97126.42;109103;1273;22522;-80
2023/05/25 00:19:56;;;;;;;25.40;21.40;;;;;;;12.04;94.48;97125.13;109143;1266;22521;-80
2023/05/25 00:22:27;;;;;;;24.10;21.50;;;;;;;12.08;94.48;97121.33;109119;1273;23242;-80
2023/05/25 00:24:58;;;;;;;26.20;21.30;;;;;;;12.07;94.23;97116.86;109132;1273;24221;-79
2023/05/25 00:27:29;;;;;;;24.90;20.40;;;;;;;12.00;93.98;97119.89;109132;1269;24656;-79
2023/05/25 00:30:00;;;;;;;28.80;23.10;;;;;;;11.94;93.90;97117.95;109108;1273;23063;-80
2023/05/25 00:32:31;;;;;;;26.90;22.70;;;;;;;11.90;94.04;97123.08;109137;1266;22624;-80
2023/05/25 00:35:02;;;;;;;31.40;23.80;;;;;;;11.92;94.32;97120.94;109134;1266;22541;-80
2023/05/25 00:37:33;;;;;;;30.20;23.20;;;;;;;11.94;94.34;97117.52;109104;1273;24216;-79
2023/05/25 00:40:06;;;;;;;28.90;23.50;;;;;;;11.94;94.33;97118.27;109143;1266;25414;-80
2023/05/25 00:42:38;;;;;;;27.00;23.80;;;;;;;11.93;94.40;97116.63;109119;1273;24212;-80
2023/05/25 00:45:11;;;;;;;24.90;22.10;;;;;;;11.95;94.44;97118.20;109128;1273;22791;-80
2023/05/25 00:47:43;;;;;;;28.60;22.60;;;;;;;11.94;94.34;97123.36;109102;1273;22466;-80
2023/05/25 00:50:18;;;;;;;28.80;24.50;;;;;;;11.95;94.47;97124.52;109114;1273;23858;-80
2023/05/25 00:52:49;;;;;;;30.50;24.00;;;;;;;11.95;94.33;97121.55;109146;1273;23807;-80
2023/05/25 00:55:21;;;;;;;35.20;24.70;;;;;;;11.93;94.45;97125.87;109100;1273;25492;-80
2023/05/25 00:57:56;;;;;;;33.60;26.80;;;;;;;11.90;94.40;97116.38;109127;1273;22486;-80
2023/05/25 01:00:27;;;;;;;34.00;26.20;;;;;;;11.88;94.48;97119.36;109133;1273;22564;-80
2023/05/25 01:02:59;;;;;;;29.70;24.30;;;;;;;11.85;94.54;97118.05;109102;1267;22536;-80
2023/05/25 01:05:33;;;;;;;33.10;27.40;;;;;;;11.84;94.60;97117.17;109089;1270;22571;-80
2023/05/25 01:08:06;;;;;;;31.50;25.30;;;;;;;11.84;94.87;97123.43;109194;1270;22535;-80
2023/05/25 01:10:42;;;;;;;27.80;23.40;;;;;;;11.86;94.83;97126.18;109101;1268;22461;-79
2023/05/25 01:13:18;;;;;;;28.50;24.00;;;;;;;11.83;94.60;97126.14;109106;1267;24180;-80
2023/05/25 01:15:53;;;;;;;29.60;23.80;;;;;;;11.80;94.75;97126.77;109115;1270;22479;-80
2023/05/25 01:18:24;;;;;;;27.10;21.50;;;;;;;11.79;94.74;97127.20;109123;1266;25415;-80
2023/05/25 01:21:13;;;;;;;26.50;21.70;;;;;;;11.78;94.88;97127.30;109104;1270;22519;-80
2023/05/25 01:23:47;;;;;;;26.00;21.70;;;;;;;11.80;95.06;97125.71;109120;1266;22860;-80
2023/05/25 01:26:20;;;;;;;28.00;22.40;;;;;;;11.83;95.01;97127.85;109104;1273;26110;-80
2023/05/25 01:28:54;;;;;;;24.90;21.40;;;;;;;11.83;94.97;97128.16;109082;1273;22451;-80
2023/05/25 01:31:26;;;;;;;25.90;19.70;;;;;;;11.85;95.06;97128.15;109104;1273;22650;-81
2023/05/25 01:33:58;;;;;;;23.40;19.80;;;;;;;11.89;95.07;97129.36;109110;1267;22581;-80
2023/05/25 01:36:29;;;;;;;26.30;21.70;;;;;;;11.92;95.04;97132.41;109053;1273;24296;-80
2023/05/25 01:39:01;;;;;;;30.20;23.90;;;;;;;11.92;94.92;97131.40;109113;1273;23077;-80
2023/05/25 01:41:32;;;;;;;30.00;24.80;;;;;;;11.92;94.88;97124.91;109120;1273;24241;-80
2023/05/25 01:44:03;;;;;;;25.90;20.90;;;;;;;11.91;94.85;97125.94;109132;1273;25414;-80
2023/05/25 01:46:38;;;;;;;27.30;21.20;;;;;;;11.87;94.80;97130.79;109118;1273;22524;-80
2023/05/25 01:49:16;;;;;;;26.10;22.30;;;;;;;11.84;94.83;97131.94;109161;1273;22468;-80
2023/05/25 01:51:57;;;;;;;27.40;21.40;;;;;;;11.86;95.08;97131.81;109128;1273;22553;-80
2023/05/25 01:54:35;;;;;;;27.40;20.50;;;;;;;11.87;95.03;97125.85;109140;1273;23254;-80
2023/05/25 01:57:11;;;;;;;25.80;20.70;;;;;;;11.86;94.98;97122.73;109142;1273;22542;-80
2023/05/25 01:59:45;;;;;;;26.60;20.80;;;;;;;11.85;95.00;97121.98;109130;1273;25252;-80
2023/05/25 02:02:18;;;;;;;23.90;20.10;;;;;;;11.85;94.81;97124.55;109119;1273;22483;-80
2023/05/25 02:04:50;;;;;;;30.80;22.90;;;;;;;11.78;94.48;97120.13;109089;1266;25016;-80
2023/05/25 02:07:21;;;;;;;25.60;21.70;;;;;;;11.75;94.81;97119.29;109084;1267;23767;-80
2023/05/25 02:09:52;;;;;;;26.80;22.20;;;;;;;11.76;94.93;97117.95;109098;1273;22536;-80
2023/05/25 02:12:24;;;;;;;26.80;21.00;;;;;;;11.76;95.08;97116.52;109121;1273;24304;-80
2023/05/25 02:14:55;;;;;;;24.20;19.70;;;;;;;11.76;95.23;97119.27;109123;1273;22478;-80
2023/05/25 02:17:28;;;;;;;26.30;20.40;;;;;;;11.78;95.10;97116.67;109096;1273;22543;-80
2023/05/25 02:20:00;;;;;;;24.70;21.00;;;;;;;11.74;95.01;97116.38;109087;1273;25278;-80
2023/05/25 02:22:31;;;;;;;27.30;20.80;;;;;;;11.73;95.19;97120.00;109088;1266;22553;-80
2023/05/25 02:25:03;;;;;;;27.90;22.60;;;;;;;11.72;95.27;97113.46;109126;1273;22540;-80
2023/05/25 02:27:35;;;;;;;23.70;19.50;;;;;;;11.70;95.29;97112.90;109118;1273;22617;-80
2023/05/25 02:30:08;;;;;;;24.80;19.90;;;;;;;11.70;95.42;97116.09;109125;1273;22693;-80
2023/05/25 02:32:40;;;;;;;33.20;23.30;;;;;;;11.70;95.45;97114.27;109141;1270;25287;-80
2023/05/25 02:35:11;;;;;;;23.80;20.60;;;;;;;11.69;95.52;97112.36;109127;1273;22584;-80
2023/05/25 02:37:43;;;;;;;27.80;21.60;;;;;;;11.69;95.60;97115.17;109121;1250;22610;-80
2023/05/25 02:40:14;;;;;;;24.30;21.40;;;;;;;11.69;95.57;97114.34;109092;1266;25415;-80
2023/05/25 02:42:45;;;;;;;25.80;22.00;;;;;;;11.66;95.47;97116.34;109130;1266;25424;-79
2023/05/25 02:45:16;;;;;;;28.50;22.30;;;;;;;11.64;95.55;97113.50;109146;1273;22530;-80
2023/05/25 02:47:47;;;;;;;24.40;20.80;;;;;;;11.64;95.66;97111.38;109135;1273;25415;-79
2023/05/25 02:50:18;;;;;;;26.80;21.90;;;;;;;11.62;95.63;97112.48;109130;1270;22609;-79
2023/05/25 02:52:49;;;;;;;27.10;21.40;;;;;;;11.62;95.65;97109.99;109128;1273;22576;-79
2023/05/25 02:55:20;;;;;;;25.80;22.10;;;;;;;11.62;95.76;97111.58;109144;1266;24901;-80
2023/05/25 02:57:52;;;;;;;32.30;26.50;;;;;;;11.63;95.83;97107.66;109171;1273;22560;-80
2023/05/25 03:00:23;;;;;;;25.70;21.80;;;;;;;11.62;95.72;97107.34;109123;1266;22484;-79
2023/05/25 03:02:54;;;;;;;33.90;26.20;;;;;;;11.59;95.69;97104.97;109095;1273;22745;-80
2023/05/25 03:05:25;;;;;;;29.90;24.10;;;;;;;11.57;95.77;97105.03;109098;1273;25300;-80
2023/05/25 03:07:56;;;;;;;30.00;25.60;;;;;;;11.57;95.96;97108.75;109112;1270;22541;-80
2023/05/25 03:10:27;;;;;;;27.80;23.20;;;;;;;11.58;96.13;97103.96;109100;1273;22675;-80
2023/05/25 03:12:58;;;;;;;29.90;25.20;;;;;;;11.61;96.24;97099.59;109117;1270;22565;-79
2023/05/25 03:15:29;;;;;;;32.20;25.70;;;;;;;11.62;96.28;97096.62;109129;1273;25411;-80
2023/05/25 03:18:00;;;;;;;33.40;26.60;;;;;;;11.63;96.35;97095.98;109156;1268;22516;-80
2023/05/25 03:20:31;;;;;;;30.50;27.20;;;;;;;11.64;96.53;97099.09;109104;1273;24013;-80
2023/05/25 03:23:02;;;;;;;35.00;27.30;;;;;;;11.64;96.56;97098.67;109107;1268;22688;-79
2023/05/25 03:25:33;;;;;;;32.70;26.40;;;;;;;11.64;96.52;97101.33;109117;1273;22595;-80
2023/05/25 03:28:04;;;;;;;31.10;26.40;;;;;;;11.64;96.54;97100.59;109100;1270;25451;-79
2023/05/25 03:30:35;;;;;;;32.80;25.30;;;;;;;11.63;96.62;97099.95;109140;1273;22537;-80
2023/05/25 03:33:06;;;;;;;35.60;26.30;;;;;;;11.65;96.71;97103.50;109139;1270;22866;-80
2023/05/25 03:35:37;;;;;;;30.00;25.00;;;;;;;11.65;96.66;97107.48;109084;1273;22468;-79
2023/05/25 03:38:08;;;;;;;27.00;21.90;;;;;;;11.68;96.79;97109.48;109112;1266;22518;-79
2023/05/25 03:40:39;;;;;;;26.10;22.40;;;;;;;11.72;96.70;97112.56;109135;1273;22486;-79
2023/05/25 03:43:10;;;;;;;24.70;20.90;;;;;;;11.73;96.56;97115.64;109119;1273;22939;-79
2023/05/25 03:45:40;;;;;;;26.50;20.40;;;;;;;11.74;96.39;97115.79;109083;1273;24221;-79
2023/05/25 03:48:11;;;;;;;27.80;21.90;;;;;;;11.71;96.06;97115.48;109120;1273;23913;-79
2023/05/25 03:50:42;;;;;;;25.10;20.30;;;;;;;11.69;96.08;97122.56;109121;1273;22520;-79
2023/05/25 03:53:14;;;;;;;25.40;20.90;;;;;;;11.68;96.16;97125.54;109153;1270;22513;-79
2023/05/25 03:55:45;;;;;;;23.80;20.40;;;;;;;11.70;96.18;97127.67;109113;1273;22638;-79
2023/05/25 03:58:17;;;;;;;26.60;20.00;;;;;;;11.69;96.18;97130.53;109105;1273;22654;-79
2023/05/25 04:00:49;;;;;;;24.50;18.50;;;;;;;11.69;96.03;97131.66;109138;1273;22560;-79
2023/05/25 04:03:20;;;;;;;23.10;20.00;;;;;;;11.68;96.09;97135.14;109146;1273;22580;-79
2023/05/25 04:05:51;;;;;;;23.40;20.30;;;;;;;11.68;96.01;97139.18;109079;1268;25304;-79
2023/05/25 04:08:22;;;;;;;25.10;21.00;;;;;;;11.69;96.11;97139.29;109128;1273;24158;-79
2023/05/25 04:10:53;;;;;;;22.10;19.00;;;;;;;11.69;96.20;97142.06;109142;1268;22559;-79
2023/05/25 04:13:25;;;;;;;22.30;18.30;;;;;;;11.70;96.15;97144.34;109098;1273;22966;-80
2023/05/25 04:15:56;;;;;;;20.40;17.30;;;;;;;11.70;95.96;97142.06;109076;1269;24212;-80
2023/05/25 04:18:26;;;;;;;24.90;19.60;;;;;;;11.72;96.11;97137.95;109098;1267;22542;-79
2023/05/25 04:20:57;;;;;;;23.60;19.80;;;;;;;11.73;96.05;97137.73;109138;1273;25067;-79
2023/05/25 04:23:28;;;;;;;23.10;19.00;;;;;;;11.74;95.99;97136.19;109113;1273;22586;-80
2023/05/25 04:25:59;;;;;;;22.50;18.80;;;;;;;11.74;96.05;97137.15;109103;1267;22471;-80
2023/05/25 04:28:31;;;;;;;20.60;17.90;;;;;;;11.74;96.01;97138.31;109133;1273;22514;-79
2023/05/25 04:31:02;;;;;;;22.80;18.90;;;;;;;11.74;96.02;97145.91;109124;1273;22486;-79
2023/05/25 04:33:37;;;;;;;21.20;18.60;;;;;;;11.74;96.01;97146.86;109139;1269;25217;-79
2023/05/25 04:36:09;;;;;;;23.90;18.00;;;;;;;11.74;95.98;97148.57;109081;1269;24093;-79
2023/05/25 04:38:41;;;;;;;24.80;19.90;;;;;;;11.73;95.91;97153.63;109142;1273;22514;-79
2023/05/25 04:41:12;;;;;;;23.40;18.90;;;;;;;11.69;95.79;97156.23;109124;1273;22521;-79
2023/05/25 04:43:44;;;;;;;23.20;19.10;;;;;;;11.65;95.88;97160.59;109128;1273;22781;-80
2023/05/25 04:46:15;;;;;;;24.60;19.20;;;;;;;11.65;96.05;97163.57;109113;1266;22461;-79
2023/05/25 04:48:46;;;;;;;20.10;18.00;;;;;;;11.65;96.17;97161.87;109119;1273;22451;-79
2023/05/25 04:51:17;;;;;;;22.00;17.90;;;;;;;11.68;96.25;97165.84;109147;1268;22478;-80
2023/05/25 04:53:48;;;;;;;22.60;18.00;;;;;;;11.71;96.30;97164.32;109154;1268;22583;-79
2023/05/25 04:56:21;;;;;;;22.90;19.50;;;;;;;11.72;96.22;97168.13;109113;1273;22975;-80
2023/05/25 04:58:52;;;;;;;24.20;21.20;;;;;;;11.73;96.28;97171.84;109132;1273;22942;-80
2023/05/25 05:01:25;;;;;;;20.50;17.40;;;;;;;11.75;96.45;97172.67;109140;1273;22532;-80
2023/05/25 05:03:56;;;;;;;19.90;17.30;;;;;;;11.77;96.34;97171.29;109115;1272;22715;-79
2023/05/25 05:06:27;;;;;;;19.90;17.50;;;;;;;11.79;96.28;97172.89;109091;1273;22612;-79
2023/05/25 05:08:58;;;;;;;21.90;18.30;;;;;;;11.79;96.08;97177.84;109102;1267;25295;-79
2023/05/25 05:11:29;;;;;;;19.80;17.10;;;;;;;11.77;96.00;97174.48;109078;1273;25036;-79
2023/05/25 05:14:00;;;;;;;23.90;18.50;;;;;;;11.78;96.09;97177.07;109106;1273;22620;-79
2023/05/25 05:16:33;;;;;;;21.30;17.80;;;;;;;11.79;96.08;97182.89;109095;1273;22486;-79
2023/05/25 05:19:05;;;;;;;20.50;16.90;;;;;;;11.78;95.76;97186.81;109112;1273;22470;-79
2023/05/25 05:21:36;;;;;;;20.70;17.50;;;;;;;11.78;95.86;97190.63;109069;1269;22828;-79
2023/05/25 05:24:07;;;;;;;20.70;18.40;;;;;;;11.79;95.91;97189.84;109105;1266;22575;-79
2023/05/25 05:26:38;;;;;;;22.40;16.80;;;;;;;11.80;95.87;97193.02;109137;1273;22826;-79
2023/05/25 05:29:10;;;;;;;19.60;16.80;;;;;;;11.82;95.89;97195.80;109142;1273;22520;-79
2023/05/25 05:31:41;;;;;;;21.70;17.50;;;;;;;11.82;95.76;97193.56;109150;1273;22568;-79
2023/05/25 05:34:11;;;;;;;20.00;17.30;;;;;;;11.83;95.65;97196.65;109182;1269;22523;-79
2023/05/25 05:36:42;;;;;;;20.60;17.10;;;;;;;11.82;95.49;97198.23;109131;1273;25441;-79
2023/05/25 05:39:13;;;;;;;21.90;18.90;;;;;;;11.85;95.74;97201.10;109136;1266;25403;-79
2023/05/25 05:41:44;;;;;;;20.70;16.50;;;;;;;11.88;95.94;97196.89;109122;1273;22590;-79
2023/05/25 05:44:16;;;;;;;21.10;17.70;;;;;;;11.89;95.65;97196.78;109144;1273;24180;-79
2023/05/25 05:46:47;;;;;;;20.40;16.40;;;;;;;11.91;95.69;97198.27;109113;1268;25421;-79
2023/05/25 05:49:18;;;;;;;20.60;16.90;;;;;;;11.95;95.70;97197.81;109162;1273;24234;-79
2023/05/25 05:51:49;;;;;;;21.50;18.60;;;;;;;11.97;95.62;97205.09;109109;1269;22581;-79
2023/05/25 05:54:20;;;;;;;20.90;18.00;;;;;;;11.97;95.45;97207.81;109118;1273;22575;-79
2023/05/25 05:56:51;;;;;;;21.90;18.60;;;;;;;11.95;95.41;97206.68;109139;1267;22615;-79
2023/05/25 05:59:23;;;;;;;21.60;17.50;;;;;;;11.92;95.18;97208.62;109165;1273;23744;-79
2023/05/25 06:01:54;;;;;;;24.70;19.20;;;;;;;11.88;95.02;97208.16;109116;1274;22587;-79
2023/05/25 06:04:27;;;;;;;20.40;17.70;;;;;;;11.87;95.24;97208.38;109129;1273;22754;-80
2023/05/25 06:06:59;;;;;;;22.00;17.90;;;;;;;11.88;95.35;97213.04;109106;1273;22545;-80
2023/05/25 06:09:29;;;;;;;26.30;20.30;;;;;;;11.93;95.47;97214.46;109120;1273;23216;-79
2023/05/25 06:12:02;;;;;;;24.50;20.60;;;;;;;11.93;95.38;97217.86;109099;1273;24203;-79
2023/05/25 06:14:33;;;;;;;24.00;20.10;;;;;;;11.93;95.34;97219.29;109137;1274;24318;-79
2023/05/25 06:17:04;;;;;;;22.70;19.10;;;;;;;11.93;95.18;97222.43;109107;1266;24272;-80
2023/05/25 06:19:35;;;;;;;23.50;17.40;;;;;;;11.96;95.47;97224.66;109110;1274;22646;-79
2023/05/25 06:22:07;;;;;;;19.80;17.30;;;;;;;11.98;95.21;97231.41;109150;1273;24184;-79
2023/05/25 06:24:37;;;;;;;20.40;17.60;;;;;;;11.97;95.06;97231.35;109101;1273;22659;-79
2023/05/25 06:27:08;;;;;;;20.90;17.90;;;;;;;11.95;94.95;97238.20;109088;1269;22605;-79
2023/05/25 06:29:39;;;;;;;23.70;17.80;;;;;;;11.95;95.06;97242.50;109081;1267;22598;-79
2023/05/25 06:32:11;;;;;;;21.20;17.40;;;;;;;11.95;95.10;97241.07;109159;1273;22536;-80
2023/05/25 06:34:42;;;;;;;22.20;16.80;;;;;;;11.97;95.14;97239.38;109148;1273;23821;-79
2023/05/25 06:37:13;;;;;;;18.30;16.40;;;;;;;11.98;95.02;97233.74;109073;1270;22555;-79
2023/05/25 06:39:44;;;;;;;19.80;15.60;;;;;;;11.99;95.04;97242.72;109135;1273;22656;-79
2023/05/25 06:42:15;;;;;;;19.30;16.10;;;;;;;12.01;95.02;97239.63;109132;1273;22518;-80
2023/05/25 06:44:46;;;;;;;20.10;16.00;;;;;;;12.04;95.04;97243.91;109093;1269;22606;-79
2023/05/25 06:47:18;;;;;;;20.40;16.40;;;;;;;12.09;95.15;97243.95;109115;1266;22632;-79
2023/05/25 06:49:49;;;;;;;19.10;16.50;;;;;;;12.15;95.29;97245.84;109114;1273;22525;-79
2023/05/25 06:52:20;;;;;;;19.60;16.20;;;;;;;12.19;95.23;97247.57;109123;1273;22475;-79
2023/05/25 06:54:51;;;;;;;18.70;16.60;;;;;;;12.23;95.04;97248.30;109153;1266;22609;-79
2023/05/25 06:57:23;;;;;;;20.00;17.80;;;;;;;12.23;94.85;97249.52;109124;1273;24203;-79
2023/05/25 06:59:54;;;;;;;23.30;19.80;;;;;;;12.25;94.95;97251.33;109151;1270;22867;-80
2023/05/25 07:02:25;;;;;;;22.30;19.30;;;;;;;12.28;95.07;97254.14;109167;1273;22784;-79
2023/05/25 07:04:56;;;;;;;24.40;19.70;;;;;;;12.26;94.66;97250.70;109163;1273;22469;-79
2023/05/25 07:07:27;;;;;;;25.70;20.60;;;;;;;12.17;94.15;97254.77;109083;1270;25411;-79
2023/05/25 07:09:58;;;;;;;24.80;19.80;;;;;;;12.09;94.40;97260.69;109149;1273;22569;-79
2023/05/25 07:12:30;;;;;;;27.20;22.20;;;;;;;12.07;94.63;97261.60;109152;1273;25282;-79
2023/05/25 07:15:01;;;;;;;26.70;21.30;;;;;;;12.05;94.72;97265.76;109099;1273;23042;-79
2023/05/25 07:17:33;;;;;;;25.30;20.30;;;;;;;12.05;94.91;97264.58;109107;1268;25256;-79
2023/05/25 07:20:04;;;;;;;26.70;21.50;;;;;;;12.08;95.06;97265.73;109119;1273;22517;-79
2023/05/25 07:22:36;;;;;;;27.70;22.20;;;;;;;12.07;95.12;97265.00;109112;1273;22658;-79
2023/05/25 07:25:08;;;;;;;28.60;22.10;;;;;;;12.09;95.24;97265.89;109137;1270;25281;-79
2023/05/25 07:27:41;;;;;;;26.70;22.10;;;;;;;12.15;95.49;97266.31;109070;1273;22529;-79
2023/05/25 07:30:14;;;;;;;23.60;20.50;;;;;;;12.19;95.56;97264.31;109114;1266;22962;-80
2023/05/25 07:32:45;;;;;;;25.50;20.60;;;;;;;12.21;95.29;97260.74;109112;1273;22756;-80
2023/05/25 07:35:16;;;;;;;24.60;21.60;;;;;;;12.19;95.13;97265.70;109089;1269;24112;-79
2023/05/25 07:37:55;;;;;;;29.90;23.50;;;;;;;12.20;95.19;97263.63;109154;1273;22518;-80
2023/05/25 07:40:27;;;;;;;27.80;22.50;;;;;;;12.21;95.23;97269.99;109150;1273;23713;-80
2023/05/25 07:42:58;;;;;;;26.60;21.80;;;;;;;12.20;95.12;97273.45;109163;1274;24321;-80
2023/05/25 07:45:29;;;;;;;27.70;21.90;;;;;;;12.20;95.11;97276.38;109102;1273;23328;-80
2023/05/25 07:48:00;;;;;;;25.70;21.90;;;;;;;12.19;95.18;97275.33;109165;1273;22517;-80
2023/05/25 07:50:31;;;;;;;25.20;21.40;;;;;;;12.21;95.37;97272.66;109130;1270;22523;-80
2023/05/25 07:53:03;;;;;;;24.10;20.50;;;;;;;12.23;95.49;97269.77;109147;1270;23678;-80
2023/05/25 07:55:34;;;;;;;23.80;20.50;;;;;;;12.27;95.46;97272.11;109128;1273;22521;-80
2023/05/25 07:58:06;;;;;;;23.10;20.40;;;;;;;12.27;95.33;97274.72;109141;1269;22581;-80
2023/05/25 08:00:37;;;;;;;23.50;21.00;;;;;;;12.30;95.42;97277.89;109179;1269;23652;-80
2023/05/25 08:03:08;;;;;;;24.80;20.30;;;;;;;12.31;95.42;97277.20;109142;1271;22484;-80
2023/05/25 08:05:39;;;;;;;22.80;19.90;;;;;;;12.32;95.34;97276.07;109121;1269;24219;-80
2023/05/25 08:08:11;;;;;;;25.30;20.40;;;;;;;12.36;95.47;97276.48;109166;1273;22508;-80
2023/05/25 08:10:42;;;;;;;23.90;19.10;;;;;;;12.40;95.43;97274.23;109156;1273;23423;-80
2023/05/25 08:13:13;;;;;;;24.30;20.60;;;;;;;12.43;95.27;97273.69;109128;1268;22559;-80
2023/05/25 08:15:44;;;;;;;26.10;21.80;;;;;;;12.44;95.26;97270.17;109128;1273;22572;-80
2023/05/25 08:18:15;;;;;;;22.10;19.80;;;;;;;12.44;94.98;97273.79;109156;1270;22523;-80
2023/05/25 08:20:46;;;;;;;23.30;19.80;;;;;;;12.41;94.63;97271.80;109137;1266;23911;-80
2023/05/25 08:23:17;;;;;;;24.70;20.70;;;;;;;12.40;94.76;97275.09;109124;1273;22528;-80
2023/05/25 08:25:50;;;;;;;24.60;21.70;;;;;;;12.40;94.81;97272.80;109117;1273;24301;-79
2023/05/25 08:28:22;;;;;;;23.70;20.50;;;;;;;12.38;94.50;97273.33;109165;1273;22544;-80
2023/05/25 08:30:53;;;;;;;23.40;20.10;;;;;;;12.37;94.72;97273.59;109142;1274;22476;-80
2023/05/25 08:33:25;;;;;;;23.90;19.00;;;;;;;12.41;94.99;97274.13;109112;1274;22556;-79
2023/05/25 08:35:57;;;;;;;23.30;20.80;;;;;;;12.44;94.69;97273.04;109143;1273;22649;-80
2023/05/25 08:38:30;;;;;;;22.40;20.00;;;;;;;12.43;94.47;97277.30;109169;1269;22526;-80
2023/05/25 08:41:05;;;;;;;23.30;19.50;;;;;;;12.49;94.78;97276.41;109134;1270;25415;-80
2023/05/25 08:43:36;;;;;;;24.10;20.00;;;;;;;12.59;95.05;97270.36;109130;1270;23605;-80
2023/05/25 08:46:09;;;;;;;26.90;20.10;;;;;;;12.64;94.59;97272.77;109122;1274;24195;-80
2023/05/25 08:48:42;;;;;;;21.70;18.30;;;;;;;12.66;94.31;97268.77;109153;1269;23269;-79
2023/05/25 08:51:16;;;;;;;25.10;20.20;;;;;;;12.66;94.18;97274.98;109150;1274;22553;-80
2023/05/25 08:53:49;;;;;;;22.20;18.90;;;;;;;12.70;94.41;97278.02;109133;1269;22751;-80
2023/05/25 08:56:22;;;;;;;23.60;19.30;;;;;;;12.72;93.92;97278.59;109123;1274;22546;-80
2023/05/25 08:59:02;;;;;;;24.10;20.80;;;;;;;12.72;94.23;97276.14;109078;1266;22541;-80
2023/05/25 09:01:39;;;;;;;21.30;18.90;;;;;;;12.74;94.09;97279.52;109134;1271;24307;-80
2023/05/25 09:04:12;;;;;;;21.60;18.70;;;;;;;12.79;94.22;97280.23;109144;1274;22539;-80
2023/05/25 09:06:44;;;;;;;22.50;18.90;;;;;;;12.81;93.85;97281.89;109141;1274;25398;-80
2023/05/25 09:09:16;;;;;;;21.00;18.20;;;;;;;12.85;93.94;97280.65;109124;1274;24213;-80
2023/05/25 09:11:48;;;;;;;22.30;19.70;;;;;;;12.88;93.83;97277.96;109136;1274;22521;-79
2023/05/25 09:14:20;;;;;;;24.10;20.30;;;;;;;12.87;93.51;97284.72;109159;1274;22564;-80
2023/05/25 09:16:52;;;;;;;22.60;19.60;;;;;;;12.92;93.84;97283.14;109135;1274;23892;-80
2023/05/25 09:19:23;;;;;;;20.70;18.20;;;;;;;12.98;93.85;97279.34;109163;1273;22554;-80
2023/05/25 09:21:54;;;;;;;20.30;18.10;;;;;;;13.02;93.59;97271.73;109151;1274;23812;-80
2023/05/25 09:24:26;;;;;;;19.00;16.40;;;;;;;13.04;93.21;97271.30;109139;1273;22505;-80
2023/05/25 09:26:59;;;;;;;20.10;17.30;;;;;;;13.11;93.26;97267.54;109112;1274;23982;-80
2023/05/25 09:29:31;;;;;;;21.10;18.40;;;;;;;13.13;92.79;97267.30;109156;1274;22687;-80
2023/05/25 09:32:06;;;;;;;22.00;18.50;;;;;;;13.22;93.24;97271.82;109098;1264;22552;-80
2023/05/25 09:34:37;;;;;;;21.50;18.50;;;;;;;13.25;92.68;97274.74;109130;1274;22487;-80
2023/05/25 09:37:17;;;;;;;20.40;17.40;;;;;;;13.26;92.81;97275.70;109143;1273;22647;-80
2023/05/25 09:39:51;;;;;;;18.60;16.60;;;;;;;13.33;92.84;97276.69;109084;1273;122579;-80
2023/05/25 09:42:22;;;;;;;19.40;16.90;;;;;;;13.40;92.54;97274.20;109168;1274;22526;-80
2023/05/25 09:44:54;;;;;;;21.30;16.20;;;;;;;13.45;92.39;97274.95;109115;1273;22516;-80
2023/05/25 09:47:25;;;;;;;18.20;16.20;;;;;;;13.47;92.10;97274.49;109119;1274;23228;-80
2023/05/25 09:49:57;;;;;;;19.50;16.80;;;;;;;13.52;92.14;97274.88;109115;1268;25321;-80
2023/05/25 09:52:29;;;;;;;19.70;17.40;;;;;;;13.55;91.67;97276.94;109152;1272;22577;-80
2023/05/25 09:55:02;;;;;;;19.90;17.20;;;;;;;13.56;91.43;97277.89;109152;1274;24222;-80
2023/05/25 09:57:35;;;;;;;18.90;16.20;;;;;;;13.53;91.19;97274.39;109171;1270;23461;-80
2023/05/25 10:00:10;;;;;;;18.60;16.60;;;;;;;13.49;90.80;97273.57;109103;1272;22644;-80
2023/05/25 10:02:41;;;;;;;17.80;15.90;;;;;;;13.49;90.94;97274.30;109132;1274;22514;-81
2023/05/25 10:05:12;;;;;;;18.20;15.70;;;;;;;13.57;91.12;97273.92;109124;1273;22606;-80
2023/05/25 10:07:44;;;;;;;19.40;17.30;;;;;;;13.60;90.86;97267.39;109138;1274;22493;-80
2023/05/25 10:10:16;;;;;;;18.40;15.90;;;;;;;13.66;91.15;97266.33;109147;1271;25424;-80
2023/05/25 10:12:50;;;;;;;17.50;15.60;;;;;;;13.74;91.08;97268.45;109142;1274;22525;-80
2023/05/25 10:15:23;;;;;;;17.60;15.30;;;;;;;13.81;90.90;97267.94;109141;1272;22523;-81
2023/05/25 10:17:58;;;;;;;18.20;15.90;;;;;;;13.90;91.14;97270.71;109151;1274;24028;-81
2023/05/25 10:20:30;;;;;;;20.50;16.80;;;;;;;13.99;91.14;97274.20;109164;1274;22620;-81
2023/05/25 10:23:05;;;;;;;19.70;17.40;;;;;;;14.05;90.66;97275.83;109153;1269;22546;-80
2023/05/25 10:25:40;;;;;;;21.30;18.40;;;;;;;14.04;90.16;97273.83;109159;1274;23537;-80
2023/05/25 10:28:17;;;;;;;20.60;16.30;;;;;;;14.07;90.21;97273.67;109103;1266;25358;-80
2023/05/25 10:30:49;;;;;;;19.80;17.00;;;;;;;14.05;89.47;97272.00;109152;1272;22479;-80
2023/05/25 10:33:21;;;;;;;18.50;16.60;;;;;;;14.03;89.56;97272.77;109139;1272;23987;-80
2023/05/25 10:35:54;;;;;;;19.40;17.30;;;;;;;14.07;89.59;97269.19;109159;1266;25445;-80
2023/05/25 10:38:29;;;;;;;17.90;16.20;;;;;;;14.06;89.45;97271.98;109150;1272;22630;-80
2023/05/25 10:41:04;;;;;;;18.60;16.30;;;;;;;14.07;89.27;97270.27;109131;1273;24375;-80
2023/05/25 10:43:36;;;;;;;19.40;16.60;;;;;;;14.07;89.21;97269.68;109172;1274;23856;-80
2023/05/25 10:46:08;;;;;;;19.30;17.40;;;;;;;14.04;89.16;97267.85;109085;1274;24373;-80
2023/05/25 10:48:40;;;;;;;20.60;17.30;;;;;;;14.05;89.22;97266.55;109197;1272;22626;-80
2023/05/25 10:51:11;;;;;;;18.80;16.30;;;;;;;14.07;89.26;97265.52;109160;1274;22562;-80
2023/05/25 10:53:46;;;;;;;18.90;16.80;;;;;;;14.10;89.13;97264.27;109165;1272;22539;-80
2023/05/25 10:56:17;;;;;;;17.70;15.80;;;;;;;14.13;89.47;97259.22;109135;1273;22531;-80
2023/05/25 10:58:49;;;;;;;21.00;18.80;;;;;;;14.18;89.01;97260.11;109195;1267;24264;-80
2023/05/25 11:01:20;;;;;;;20.40;18.20;;;;;;;14.14;88.70;97258.09;109169;1266;23284;-80
2023/05/25 11:03:54;;;;;;;21.90;19.40;;;;;;;14.16;89.02;97262.05;109122;1270;22970;-80
2023/05/25 11:07:02;;;;;;;21.40;19.10;;;;;;;14.14;88.80;97259.95;109102;1274;22542;-80
2023/05/25 11:09:35;;;;;;;20.50;18.30;;;;;;;14.15;88.69;97261.00;109126;1273;22489;-80
2023/05/25 11:12:08;;;;;;;21.60;18.50;;;;;;;14.22;89.16;97262.98;109155;1274;22512;-80
2023/05/25 11:14:41;;;;;;;27.00;20.80;;;;;;;14.26;88.69;97262.05;109108;1273;22586;-80
2023/05/25 11:17:14;;;;;;;22.70;20.10;;;;;;;14.24;88.71;97265.23;109142;1273;22555;-80
2023/05/25 11:19:47;;;;;;;23.80;21.20;;;;;;;14.26;88.73;97262.32;109177;1274;22521;-80
2023/05/25 11:22:20;;;;;;;24.30;21.00;;;;;;;14.26;88.52;97260.92;109151;1269;22511;-81
2023/05/25 11:24:52;;;;;;;26.20;22.80;;;;;;;14.23;88.75;97257.55;109124;1272;22522;-81
2023/05/25 11:27:27;;;;;;;24.70;22.10;;;;;;;14.27;88.95;97253.52;109155;1272;24294;-81
2023/05/25 11:30:00;;;;;;;22.50;20.20;;;;;;;14.32;88.72;97248.48;109150;1271;23420;-81
2023/05/25 11:32:31;;;;;;;22.50;19.20;;;;;;;14.40;88.94;97248.38;109120;1273;22553;-81